ADDS TAF Board (Experimental) INFO

IDs: Format: Expanded Condensed

Updated at: 1832 UTC 23 Oct 2014

KLGA - New York/La Guardia, NY, US

Issued at 1720 UTC 23 Oct 2014
Time1759Z23/19Z23/20Z23/21Z23/22Z23/23Z24/00Z24/01Z24/02Z24/03Z24/04Z24/05Z24/06Z24/07Z
TypeOBSPRVL
  [TEMP]  
PRVLPRVLPRVLPRVLPRVLPRVLPRVLPRVLPRVLPRVLPRVLPRVL
VIS10>6>6>6>6>6>6>6>6>6>6>6>6>6
CIG1725
  [15]  
252525353535353535505050
CoverOVCOVC
  [BKN]  
OVCOVCOVCBKNBKNBKNBKNBKNBKNBKNBKNBKN
FltCatMVFRMVFR
  [MVFR]  
MVFRMVFRMVFRVFRVFRVFRVFRVFRVFRVFRVFRVFR
WX-RAVCSH
  [--]  
VCSHVCSHVCSH------------------
WDir340350
[350]
350350350340340340340340340330330330
WSpd1617
  [17]  
171717151515151515141414
WGst2327
  [27]  
272727262626262626------
R04/22
XWnd1311111111121212121212121212
XGst1818181818202020202020------
HWnd1013131313999999777
HGst1420202020161616161616------
R13/31
XWnd1013131313999999777
XGst1420202020161616161616------
HWnd-13-11-11-11-11-12-12-12-12-12-12-12-12-12
HGst-18-18-18-18-18-20-20-20-20-20-20------
Raw TAF
KLGA 231720Z 2318/2418 35017G27KT P6SM VCSH FEW015 BKN025 OVC060
  TEMPO 2318/2320 BKN015
  FM232300 34015G26KT P6SM BKN035 BKN080
  FM240500 33014KT P6SM BKN050 BKN080
  FM241400 32014G21KT P6SM BKN050


Raw METAR
KLGA 231759Z 34016G23KT 10SM -RA BKN017 OVC036 11/08 A2969 RMK AO2 P0000
KLGA 231751Z 34016G25KT 10SM -RA SCT019 OVC036 11/08 A2970 RMK AO2 PK WND 34028/1727 SLP055 P0000 60011 T01110078 10111 20106 58005

TAF Board Legend

Hazard VFR MVFR IFR LIFR
Visibility (sm) >5 3≤X≤5 1≤X<3 <1
Ceiling (100 ft) >30 10≤X≤30 5≤X<10 <5
Wind Speed (kt) <10 10≤X<20 20≤X<30 ≥30
Wind Gust (kt) <15 15≤X<25 25≤X<35 ≥35
Weather No Wx Reported VCTS,-TS,-FZRA TS,FZRA +TS,+FZRA


Page loaded:  18:32 UTC  |   11:32 AM Pacific  |   12:32 PM Mountain  |   01:32 PM Central  |   02:32 PM Eastern

 

ADVISORIES

FORECASTS

FORECASTS

OBSERVATIONS

USER TOOLS

ABOUT US